sensor_id;sensor_type;location;lat;lon;timestamp;P1;durP1;ratioP1;P2;durP2;ratioP2
22995;SDS011;11664;49.774;8.650;2023-05-10T00:00:10;9.43;;;8.93;;
22995;SDS011;11664;49.774;8.650;2023-05-10T00:02:37;10.90;;;10.35;;
22995;SDS011;11664;49.774;8.650;2023-05-10T00:05:02;8.90;;;8.27;;
22995;SDS011;11664;49.774;8.650;2023-05-10T00:07:28;19.95;;;18.90;;
22995;SDS011;11664;49.774;8.650;2023-05-10T00:09:54;28.17;;;26.77;;
22995;SDS011;11664;49.774;8.650;2023-05-10T00:12:19;17.83;;;16.92;;
22995;SDS011;11664;49.774;8.650;2023-05-10T00:14:45;20.25;;;19.25;;
22995;SDS011;11664;49.774;8.650;2023-05-10T00:17:10;14.77;;;14.02;;
22995;SDS011;11664;49.774;8.650;2023-05-10T00:19:36;13.45;;;12.77;;
22995;SDS011;11664;49.774;8.650;2023-05-10T00:22:01;22.83;;;21.67;;
22995;SDS011;11664;49.774;8.650;2023-05-10T00:24:27;24.02;;;22.80;;
22995;SDS011;11664;49.774;8.650;2023-05-10T00:26:52;21.05;;;19.98;;
22995;SDS011;11664;49.774;8.650;2023-05-10T00:29:18;29.60;;;28.08;;
22995;SDS011;11664;49.774;8.650;2023-05-10T00:31:44;55.42;;;52.63;;
22995;SDS011;11664;49.774;8.650;2023-05-10T00:34:10;57.92;;;54.95;;
22995;SDS011;11664;49.774;8.650;2023-05-10T00:36:35;37.85;;;35.90;;
22995;SDS011;11664;49.774;8.650;2023-05-10T00:39:01;39.90;;;37.83;;
22995;SDS011;11664;49.774;8.650;2023-05-10T00:41:28;43.50;;;41.28;;
22995;SDS011;11664;49.774;8.650;2023-05-10T00:43:54;17.05;;;16.20;;
22995;SDS011;11664;49.774;8.650;2023-05-10T00:46:19;26.52;;;25.17;;
22995;SDS011;11664;49.774;8.650;2023-05-10T00:48:46;54.88;;;52.08;;
22995;SDS011;11664;49.774;8.650;2023-05-10T00:51:12;9.15;;;8.57;;
22995;SDS011;11664;49.774;8.650;2023-05-10T00:53:38;19.27;;;18.13;;
22995;SDS011;11664;49.774;8.650;2023-05-10T00:56:03;45.15;;;42.80;;
22995;SDS011;11664;49.774;8.650;2023-05-10T00:58:30;49.40;;;46.85;;
22995;SDS011;11664;49.774;8.650;2023-05-10T01:00:56;31.23;;;29.63;;
22995;SDS011;11664;49.774;8.650;2023-05-10T01:03:22;52.53;;;49.75;;
22995;SDS011;11664;49.774;8.650;2023-05-10T01:05:48;64.18;;;60.85;;
22995;SDS011;11664;49.774;8.650;2023-05-10T01:08:15;32.05;;;30.38;;
22995;SDS011;11664;49.774;8.650;2023-05-10T01:10:41;52.20;;;49.47;;
22995;SDS011;11664;49.774;8.650;2023-05-10T01:13:07;34.60;;;32.80;;
22995;SDS011;11664;49.774;8.650;2023-05-10T01:15:33;24.80;;;23.50;;
22995;SDS011;11664;49.774;8.650;2023-05-10T01:18:00;25.70;;;24.40;;
22995;SDS011;11664;49.774;8.650;2023-05-10T01:20:25;24.50;;;23.17;;
22995;SDS011;11664;49.774;8.650;2023-05-10T01:23:05;37.35;;;35.40;;
22995;SDS011;11664;49.774;8.650;2023-05-10T01:25:53;42.45;;;40.05;;
22995;SDS011;11664;49.774;8.650;2023-05-10T01:34:12;34.15;;;32.38;;
22995;SDS011;11664;49.774;8.650;2023-05-10T01:36:46;8.35;;;7.95;;
22995;SDS011;11664;49.774;8.650;2023-05-10T01:39:17;11.82;;;11.23;;
22995;SDS011;11664;49.774;8.650;2023-05-10T01:50:06;17.10;;;16.17;;
22995;SDS011;11664;49.774;8.650;2023-05-10T01:52:41;21.42;;;20.30;;
22995;SDS011;11664;49.774;8.650;2023-05-10T01:55:09;12.07;;;11.48;;
22995;SDS011;11664;49.774;8.650;2023-05-10T01:57:39;35.35;;;33.55;;
22995;SDS011;11664;49.774;8.650;2023-05-10T02:00:06;25.13;;;23.80;;
22995;SDS011;11664;49.774;8.650;2023-05-10T02:02:33;18.30;;;17.38;;
22995;SDS011;11664;49.774;8.650;2023-05-10T02:05:02;45.92;;;43.60;;
22995;SDS011;11664;49.774;8.650;2023-05-10T02:07:30;34.25;;;31.50;;
22995;SDS011;11664;49.774;8.650;2023-05-10T02:09:58;27.20;;;25.80;;
22995;SDS011;11664;49.774;8.650;2023-05-10T02:12:25;35.50;;;33.65;;
22995;SDS011;11664;49.774;8.650;2023-05-10T02:14:53;34.88;;;32.90;;
22995;SDS011;11664;49.774;8.650;2023-05-10T02:17:19;31.70;;;30.05;;
22995;SDS011;11664;49.774;8.650;2023-05-10T02:19:47;33.50;;;31.80;;
22995;SDS011;11664;49.774;8.650;2023-05-10T02:22:14;41.25;;;39.08;;
22995;SDS011;11664;49.774;8.650;2023-05-10T02:24:41;33.53;;;31.83;;
22995;SDS011;11664;49.774;8.650;2023-05-10T02:27:07;22.90;;;21.70;;
22995;SDS011;11664;49.774;8.650;2023-05-10T02:29:34;24.67;;;23.40;;
22995;SDS011;11664;49.774;8.650;2023-05-10T02:32:01;22.73;;;21.45;;
22995;SDS011;11664;49.774;8.650;2023-05-10T02:34:28;25.75;;;24.35;;
22995;SDS011;11664;49.774;8.650;2023-05-10T02:36:54;20.50;;;19.45;;
22995;SDS011;11664;49.774;8.650;2023-05-10T02:39:21;12.70;;;12.00;;
22995;SDS011;11664;49.774;8.650;2023-05-10T02:41:48;23.35;;;22.05;;
22995;SDS011;11664;49.774;8.650;2023-05-10T02:44:15;42.63;;;40.45;;
22995;SDS011;11664;49.774;8.650;2023-05-10T02:46:44;26.95;;;25.58;;
22995;SDS011;11664;49.774;8.650;2023-05-10T02:49:10;30.92;;;29.35;;
22995;SDS011;11664;49.774;8.650;2023-05-10T02:51:35;39.92;;;37.22;;
22995;SDS011;11664;49.774;8.650;2023-05-10T02:54:12;38.13;;;36.15;;
22995;SDS011;11664;49.774;8.650;2023-05-10T02:56:47;14.43;;;13.63;;
22995;SDS011;11664;49.774;8.650;2023-05-10T02:59:18;14.05;;;13.35;;
22995;SDS011;11664;49.774;8.650;2023-05-10T03:01:44;41.30;;;39.15;;
22995;SDS011;11664;49.774;8.650;2023-05-10T03:04:10;69.95;;;66.35;;
22995;SDS011;11664;49.774;8.650;2023-05-10T03:06:35;41.33;;;39.15;;
22995;SDS011;11664;49.774;8.650;2023-05-10T03:09:01;24.45;;;23.20;;
22995;SDS011;11664;49.774;8.650;2023-05-10T03:11:32;65.32;;;61.95;;
22995;SDS011;11664;49.774;8.650;2023-05-10T03:19:26;52.90;;;50.15;;
22995;SDS011;11664;49.774;8.650;2023-05-10T03:21:59;33.60;;;31.80;;
22995;SDS011;11664;49.774;8.650;2023-05-10T03:24:29;42.38;;;40.17;;
22995;SDS011;11664;49.774;8.650;2023-05-10T03:26:56;45.78;;;43.17;;
22995;SDS011;11664;49.774;8.650;2023-05-10T03:29:27;29.95;;;28.40;;
22995;SDS011;11664;49.774;8.650;2023-05-10T03:31:54;28.50;;;26.95;;
22995;SDS011;11664;49.774;8.650;2023-05-10T03:34:23;31.17;;;29.55;;
22995;SDS011;11664;49.774;8.650;2023-05-10T03:36:49;20.42;;;19.40;;
22995;SDS011;11664;49.774;8.650;2023-05-10T03:39:15;11.65;;;10.82;;
22995;SDS011;11664;49.774;8.650;2023-05-10T03:41:40;17.92;;;17.00;;
22995;SDS011;11664;49.774;8.650;2023-05-10T03:44:06;14.10;;;13.35;;
22995;SDS011;11664;49.774;8.650;2023-05-10T03:46:31;16.08;;;15.18;;
22995;SDS011;11664;49.774;8.650;2023-05-10T03:48:57;59.10;;;55.92;;
22995;SDS011;11664;49.774;8.650;2023-05-10T03:51:22;77.18;;;73.00;;
22995;SDS011;11664;49.774;8.650;2023-05-10T03:53:52;38.78;;;36.67;;
22995;SDS011;11664;49.774;8.650;2023-05-10T03:56:21;56.97;;;53.83;;
22995;SDS011;11664;49.774;8.650;2023-05-10T03:58:46;23.85;;;22.60;;
22995;SDS011;11664;49.774;8.650;2023-05-10T04:01:12;70.40;;;66.50;;
22995;SDS011;11664;49.774;8.650;2023-05-10T04:03:38;62.10;;;58.65;;
22995;SDS011;11664;49.774;8.650;2023-05-10T04:06:04;95.90;;;90.63;;
22995;SDS011;11664;49.774;8.650;2023-05-10T04:08:30;75.47;;;71.05;;
22995;SDS011;11664;49.774;8.650;2023-05-10T04:11:06;103.95;;;98.28;;
22995;SDS011;11664;49.774;8.650;2023-05-10T04:13:32;79.80;;;75.53;;
22995;SDS011;11664;49.774;8.650;2023-05-10T04:15:57;44.53;;;42.13;;
22995;SDS011;11664;49.774;8.650;2023-05-10T04:18:23;48.97;;;46.35;;
22995;SDS011;11664;49.774;8.650;2023-05-10T04:20:48;39.72;;;37.55;;
22995;SDS011;11664;49.774;8.650;2023-05-10T04:23:14;33.60;;;31.40;;
22995;SDS011;11664;49.774;8.650;2023-05-10T04:25:41;36.92;;;34.92;;
22995;SDS011;11664;49.774;8.650;2023-05-10T04:28:07;18.15;;;17.05;;
22995;SDS011;11664;49.774;8.650;2023-05-10T04:30:32;16.35;;;15.35;;
22995;SDS011;11664;49.774;8.650;2023-05-10T04:32:58;19.30;;;18.20;;
22995;SDS011;11664;49.774;8.650;2023-05-10T04:35:23;31.35;;;29.63;;
22995;SDS011;11664;49.774;8.650;2023-05-10T04:37:49;14.32;;;13.52;;
22995;SDS011;11664;49.774;8.650;2023-05-10T04:40:15;17.27;;;16.38;;
22995;SDS011;11664;49.774;8.650;2023-05-10T04:42:40;15.52;;;14.65;;
22995;SDS011;11664;49.774;8.650;2023-05-10T04:45:06;37.42;;;35.45;;
22995;SDS011;11664;49.774;8.650;2023-05-10T04:47:32;17.13;;;16.20;;
22995;SDS011;11664;49.774;8.650;2023-05-10T04:49:58;15.98;;;15.05;;
22995;SDS011;11664;49.774;8.650;2023-05-10T04:52:23;24.90;;;23.42;;
22995;SDS011;11664;49.774;8.650;2023-05-10T04:54:49;30.48;;;28.63;;
22995;SDS011;11664;49.774;8.650;2023-05-10T04:57:15;18.40;;;17.40;;
22995;SDS011;11664;49.774;8.650;2023-05-10T04:59:41;32.72;;;30.98;;
22995;SDS011;11664;49.774;8.650;2023-05-10T05:02:07;49.42;;;46.78;;
22995;SDS011;11664;49.774;8.650;2023-05-10T05:04:33;39.85;;;37.60;;
22995;SDS011;11664;49.774;8.650;2023-05-10T05:06:58;34.75;;;32.80;;
22995;SDS011;11664;49.774;8.650;2023-05-10T05:09:24;37.42;;;35.30;;
22995;SDS011;11664;49.774;8.650;2023-05-10T05:11:49;18.02;;;17.13;;
22995;SDS011;11664;49.774;8.650;2023-05-10T05:14:15;15.75;;;14.85;;
22995;SDS011;11664;49.774;8.650;2023-05-10T05:16:40;26.13;;;24.52;;
22995;SDS011;11664;49.774;8.650;2023-05-10T05:19:06;16.10;;;15.15;;
22995;SDS011;11664;49.774;8.650;2023-05-10T05:21:31;18.77;;;17.70;;
22995;SDS011;11664;49.774;8.650;2023-05-10T05:23:57;16.27;;;15.25;;
22995;SDS011;11664;49.774;8.650;2023-05-10T05:26:23;15.02;;;14.23;;
22995;SDS011;11664;49.774;8.650;2023-05-10T05:28:48;15.38;;;14.50;;
22995;SDS011;11664;49.774;8.650;2023-05-10T05:31:16;16.45;;;15.23;;
22995;SDS011;11664;49.774;8.650;2023-05-10T05:33:42;13.65;;;12.80;;
22995;SDS011;11664;49.774;8.650;2023-05-10T05:36:08;25.08;;;23.52;;
22995;SDS011;11664;49.774;8.650;2023-05-10T05:38:34;35.38;;;33.40;;
22995;SDS011;11664;49.774;8.650;2023-05-10T05:40:59;26.88;;;25.45;;
22995;SDS011;11664;49.774;8.650;2023-05-10T05:43:25;34.33;;;32.30;;
22995;SDS011;11664;49.774;8.650;2023-05-10T05:45:51;34.63;;;32.70;;
22995;SDS011;11664;49.774;8.650;2023-05-10T05:48:18;12.15;;;11.32;;
22995;SDS011;11664;49.774;8.650;2023-05-10T05:50:44;21.33;;;20.13;;
22995;SDS011;11664;49.774;8.650;2023-05-10T05:53:10;12.73;;;11.93;;
22995;SDS011;11664;49.774;8.650;2023-05-10T05:55:36;36.58;;;34.53;;
22995;SDS011;11664;49.774;8.650;2023-05-10T05:58:01;48.35;;;45.65;;
22995;SDS011;11664;49.774;8.650;2023-05-10T06:00:27;16.25;;;15.07;;
22995;SDS011;11664;49.774;8.650;2023-05-10T06:02:53;14.20;;;13.13;;
22995;SDS011;11664;49.774;8.650;2023-05-10T06:05:18;14.27;;;13.25;;
22995;SDS011;11664;49.774;8.650;2023-05-10T06:07:45;12.00;;;11.30;;
22995;SDS011;11664;49.774;8.650;2023-05-10T06:10:10;11.20;;;10.55;;
22995;SDS011;11664;49.774;8.650;2023-05-10T06:12:36;12.13;;;11.35;;
22995;SDS011;11664;49.774;8.650;2023-05-10T06:15:02;6.80;;;6.20;;
22995;SDS011;11664;49.774;8.650;2023-05-10T06:17:28;8.18;;;7.57;;
22995;SDS011;11664;49.774;8.650;2023-05-10T06:19:54;7.65;;;7.15;;
22995;SDS011;11664;49.774;8.650;2023-05-10T06:22:19;8.02;;;7.40;;
22995;SDS011;11664;49.774;8.650;2023-05-10T06:24:47;8.85;;;8.25;;
22995;SDS011;11664;49.774;8.650;2023-05-10T06:27:13;6.97;;;6.47;;
22995;SDS011;11664;49.774;8.650;2023-05-10T06:29:38;6.80;;;6.20;;
22995;SDS011;11664;49.774;8.650;2023-05-10T06:32:04;9.95;;;9.35;;
22995;SDS011;11664;49.774;8.650;2023-05-10T06:34:30;9.45;;;8.77;;
22995;SDS011;11664;49.774;8.650;2023-05-10T06:36:55;7.70;;;7.13;;
22995;SDS011;11664;49.774;8.650;2023-05-10T06:39:21;6.40;;;5.90;;
22995;SDS011;11664;49.774;8.650;2023-05-10T06:41:46;6.55;;;6.05;;
22995;SDS011;11664;49.774;8.650;2023-05-10T06:44:12;5.25;;;4.85;;
22995;SDS011;11664;49.774;8.650;2023-05-10T06:46:37;5.47;;;5.07;;
22995;SDS011;11664;49.774;8.650;2023-05-10T06:49:03;5.32;;;4.85;;
22995;SDS011;11664;49.774;8.650;2023-05-10T06:51:29;7.28;;;4.65;;
22995;SDS011;11664;49.774;8.650;2023-05-10T06:53:55;6.32;;;5.85;;
22995;SDS011;11664;49.774;8.650;2023-05-10T06:56:21;5.95;;;5.55;;
22995;SDS011;11664;49.774;8.650;2023-05-10T06:58:47;6.38;;;5.95;;
22995;SDS011;11664;49.774;8.650;2023-05-10T07:01:13;6.28;;;5.78;;
22995;SDS011;11664;49.774;8.650;2023-05-10T07:03:38;6.00;;;5.53;;
22995;SDS011;11664;49.774;8.650;2023-05-10T07:06:04;5.38;;;4.97;;
22995;SDS011;11664;49.774;8.650;2023-05-10T07:08:31;8.88;;;4.90;;
22995;SDS011;11664;49.774;8.650;2023-05-10T07:11:01;5.28;;;4.88;;
22995;SDS011;11664;49.774;8.650;2023-05-10T07:13:28;5.75;;;5.45;;
22995;SDS011;11664;49.774;8.650;2023-05-10T07:15:55;5.53;;;5.13;;
22995;SDS011;11664;49.774;8.650;2023-05-10T07:18:20;7.75;;;7.15;;
22995;SDS011;11664;49.774;8.650;2023-05-10T07:20:45;6.55;;;6.15;;
22995;SDS011;11664;49.774;8.650;2023-05-10T07:23:11;5.72;;;5.32;;
22995;SDS011;11664;49.774;8.650;2023-05-10T07:25:37;5.38;;;4.88;;
22995;SDS011;11664;49.774;8.650;2023-05-10T07:28:02;6.18;;;5.78;;
22995;SDS011;11664;49.774;8.650;2023-05-10T07:30:28;6.70;;;6.30;;
22995;SDS011;11664;49.774;8.650;2023-05-10T07:32:53;5.57;;;5.28;;
22995;SDS011;11664;49.774;8.650;2023-05-10T07:35:19;5.70;;;5.32;;
22995;SDS011;11664;49.774;8.650;2023-05-10T07:37:44;4.85;;;4.50;;
22995;SDS011;11664;49.774;8.650;2023-05-10T07:40:10;4.90;;;4.60;;
22995;SDS011;11664;49.774;8.650;2023-05-10T07:42:36;4.47;;;4.20;;
22995;SDS011;11664;49.774;8.650;2023-05-10T07:45:01;5.40;;;4.28;;
22995;SDS011;11664;49.774;8.650;2023-05-10T07:47:27;5.30;;;4.90;;
22995;SDS011;11664;49.774;8.650;2023-05-10T07:49:53;4.80;;;4.50;;
22995;SDS011;11664;49.774;8.650;2023-05-10T07:52:18;5.57;;;5.18;;
22995;SDS011;11664;49.774;8.650;2023-05-10T07:54:44;5.55;;;5.18;;
22995;SDS011;11664;49.774;8.650;2023-05-10T07:57:09;6.85;;;6.43;;
22995;SDS011;11664;49.774;8.650;2023-05-10T07:59:35;6.10;;;5.78;;
22995;SDS011;11664;49.774;8.650;2023-05-10T08:02:01;7.88;;;7.43;;
22995;SDS011;11664;49.774;8.650;2023-05-10T08:04:26;6.97;;;6.43;;
22995;SDS011;11664;49.774;8.650;2023-05-10T08:06:52;6.35;;;5.40;;
22995;SDS011;11664;49.774;8.650;2023-05-10T08:09:17;4.47;;;4.07;;
22995;SDS011;11664;49.774;8.650;2023-05-10T08:11:48;7.57;;;6.97;;
22995;SDS011;11664;49.774;8.650;2023-05-10T08:14:14;7.93;;;7.43;;
22995;SDS011;11664;49.774;8.650;2023-05-10T08:16:39;15.60;;;14.75;;
22995;SDS011;11664;49.774;8.650;2023-05-10T08:19:06;10.50;;;9.80;;
22995;SDS011;11664;49.774;8.650;2023-05-10T08:21:32;8.40;;;7.90;;
22995;SDS011;11664;49.774;8.650;2023-05-10T08:23:57;5.80;;;5.40;;
22995;SDS011;11664;49.774;8.650;2023-05-10T08:26:23;14.40;;;13.60;;
22995;SDS011;11664;49.774;8.650;2023-05-10T08:28:48;4.97;;;4.65;;
22995;SDS011;11664;49.774;8.650;2023-05-10T08:31:14;7.72;;;5.55;;
22995;SDS011;11664;49.774;8.650;2023-05-10T08:33:40;6.82;;;6.15;;
22995;SDS011;11664;49.774;8.650;2023-05-10T08:36:06;10.93;;;10.32;;
22995;SDS011;11664;49.774;8.650;2023-05-10T08:38:31;8.32;;;7.82;;
22995;SDS011;11664;49.774;8.650;2023-05-10T08:40:57;5.55;;;5.25;;
22995;SDS011;11664;49.774;8.650;2023-05-10T08:43:25;6.18;;;5.75;;
22995;SDS011;11664;49.774;8.650;2023-05-10T08:45:54;8.85;;;8.15;;
22995;SDS011;11664;49.774;8.650;2023-05-10T08:48:23;10.20;;;9.55;;
22995;SDS011;11664;49.774;8.650;2023-05-10T08:50:50;10.10;;;9.50;;
22995;SDS011;11664;49.774;8.650;2023-05-10T08:53:18;10.25;;;9.73;;
22995;SDS011;11664;49.774;8.650;2023-05-10T08:55:44;7.10;;;6.70;;
22995;SDS011;11664;49.774;8.650;2023-05-10T08:58:10;5.70;;;5.40;;
22995;SDS011;11664;49.774;8.650;2023-05-10T09:00:36;5.60;;;5.20;;
22995;SDS011;11664;49.774;8.650;2023-05-10T09:03:02;5.50;;;5.20;;
22995;SDS011;11664;49.774;8.650;2023-05-10T09:05:29;6.57;;;6.28;;
22995;SDS011;11664;49.774;8.650;2023-05-10T09:07:55;6.45;;;6.15;;
22995;SDS011;11664;49.774;8.650;2023-05-10T09:10:21;7.05;;;6.65;;
22995;SDS011;11664;49.774;8.650;2023-05-10T09:12:50;6.28;;;5.88;;
22995;SDS011;11664;49.774;8.650;2023-05-10T09:15:16;5.55;;;5.25;;
22995;SDS011;11664;49.774;8.650;2023-05-10T09:17:44;5.03;;;4.72;;
22995;SDS011;11664;49.774;8.650;2023-05-10T09:20:09;4.35;;;4.15;;
22995;SDS011;11664;49.774;8.650;2023-05-10T09:22:35;4.97;;;4.68;;
22995;SDS011;11664;49.774;8.650;2023-05-10T09:27:30;4.95;;;4.65;;
22995;SDS011;11664;49.774;8.650;2023-05-10T09:29:56;4.00;;;3.63;;
22995;SDS011;11664;49.774;8.650;2023-05-10T09:32:22;4.22;;;4.03;;
22995;SDS011;11664;49.774;8.650;2023-05-10T09:35:14;3.80;;;3.60;;
22995;SDS011;11664;49.774;8.650;2023-05-10T09:37:43;4.28;;;4.00;;
22995;SDS011;11664;49.774;8.650;2023-05-10T09:40:11;3.47;;;3.28;;
22995;SDS011;11664;49.774;8.650;2023-05-10T09:42:39;3.92;;;3.72;;
22995;SDS011;11664;49.774;8.650;2023-05-10T09:45:07;4.35;;;4.05;;
22995;SDS011;11664;49.774;8.650;2023-05-10T09:47:36;4.63;;;4.40;;
22995;SDS011;11664;49.774;8.650;2023-05-10T09:50:02;4.72;;;4.32;;
22995;SDS011;11664;49.774;8.650;2023-05-10T09:52:29;4.00;;;3.80;;
22995;SDS011;11664;49.774;8.650;2023-05-10T09:55:25;4.50;;;4.30;;
22995;SDS011;11664;49.774;8.650;2023-05-10T09:58:11;5.10;;;4.82;;
22995;SDS011;11664;49.774;8.650;2023-05-10T10:00:38;6.78;;;6.38;;
22995;SDS011;11664;49.774;8.650;2023-05-10T10:03:05;5.93;;;5.63;;
22995;SDS011;11664;49.774;8.650;2023-05-10T10:05:36;3.95;;;3.75;;
22995;SDS011;11664;49.774;8.650;2023-05-10T10:08:06;5.22;;;4.95;;
22995;SDS011;11664;49.774;8.650;2023-05-10T10:10:32;4.80;;;4.57;;
22995;SDS011;11664;49.774;8.650;2023-05-10T10:12:58;6.03;;;5.72;;
22995;SDS011;11664;49.774;8.650;2023-05-10T10:15:24;4.32;;;4.15;;
22995;SDS011;11664;49.774;8.650;2023-05-10T10:17:51;3.38;;;3.20;;
22995;SDS011;11664;49.774;8.650;2023-05-10T10:20:18;3.90;;;3.70;;
22995;SDS011;11664;49.774;8.650;2023-05-10T10:22:45;3.97;;;3.78;;
22995;SDS011;11664;49.774;8.650;2023-05-10T10:25:12;5.25;;;4.95;;
22995;SDS011;11664;49.774;8.650;2023-05-10T10:27:45;3.60;;;3.40;;
22995;SDS011;11664;49.774;8.650;2023-05-10T10:35:31;3.05;;;2.85;;
22995;SDS011;11664;49.774;8.650;2023-05-10T10:37:57;3.50;;;3.30;;
22995;SDS011;11664;49.774;8.650;2023-05-10T10:40:23;3.55;;;3.35;;
22995;SDS011;11664;49.774;8.650;2023-05-10T10:42:53;3.20;;;3.10;;
22995;SDS011;11664;49.774;8.650;2023-05-10T10:45:20;3.50;;;3.30;;
22995;SDS011;11664;49.774;8.650;2023-05-10T10:47:46;4.07;;;3.78;;
22995;SDS011;11664;49.774;8.650;2023-05-10T10:50:12;11.55;;;4.15;;
22995;SDS011;11664;49.774;8.650;2023-05-10T10:52:41;4.60;;;4.40;;
22995;SDS011;11664;49.774;8.650;2023-05-10T10:57:48;3.38;;;3.17;;
22995;SDS011;11664;49.774;8.650;2023-05-10T11:02:53;5.55;;;5.13;;
22995;SDS011;11664;49.774;8.650;2023-05-10T11:05:35;6.43;;;4.13;;
22995;SDS011;11664;49.774;8.650;2023-05-10T11:08:06;6.05;;;5.60;;
22995;SDS011;11664;49.774;8.650;2023-05-10T11:13:29;4.22;;;4.03;;
22995;SDS011;11664;49.774;8.650;2023-05-10T11:15:56;5.47;;;5.07;;
22995;SDS011;11664;49.774;8.650;2023-05-10T11:18:26;5.05;;;4.65;;
22995;SDS011;11664;49.774;8.650;2023-05-10T11:20:57;4.00;;;3.80;;
22995;SDS011;11664;49.774;8.650;2023-05-10T11:25:57;3.67;;;3.47;;
22995;SDS011;11664;49.774;8.650;2023-05-10T11:28:23;2.95;;;2.80;;
22995;SDS011;11664;49.774;8.650;2023-05-10T11:30:50;3.97;;;3.67;;
22995;SDS011;11664;49.774;8.650;2023-05-10T11:33:17;6.78;;;3.50;;
22995;SDS011;11664;49.774;8.650;2023-05-10T11:35:44;3.22;;;3.13;;
22995;SDS011;11664;49.774;8.650;2023-05-10T11:38:10;3.47;;;3.28;;
22995;SDS011;11664;49.774;8.650;2023-05-10T11:40:37;3.83;;;3.63;;
22995;SDS011;11664;49.774;8.650;2023-05-10T11:43:03;3.75;;;3.45;;
22995;SDS011;11664;49.774;8.650;2023-05-10T11:45:33;2.65;;;2.55;;
22995;SDS011;11664;49.774;8.650;2023-05-10T11:48:00;2.88;;;2.67;;
22995;SDS011;11664;49.774;8.650;2023-05-10T11:50:27;3.65;;;3.40;;
22995;SDS011;11664;49.774;8.650;2023-05-10T11:52:53;3.35;;;3.25;;
22995;SDS011;11664;49.774;8.650;2023-05-10T11:55:20;3.42;;;3.22;;
22995;SDS011;11664;49.774;8.650;2023-05-10T11:57:45;3.83;;;3.63;;
22995;SDS011;11664;49.774;8.650;2023-05-10T12:00:14;4.20;;;4.00;;
22995;SDS011;11664;49.774;8.650;2023-05-10T12:02:40;4.43;;;4.22;;
22995;SDS011;11664;49.774;8.650;2023-05-10T12:05:06;3.40;;;3.20;;
22995;SDS011;11664;49.774;8.650;2023-05-10T12:07:33;5.53;;;3.40;;
22995;SDS011;11664;49.774;8.650;2023-05-10T12:10:08;4.75;;;3.47;;
22995;SDS011;11664;49.774;8.650;2023-05-10T12:12:43;4.95;;;3.33;;
22995;SDS011;11664;49.774;8.650;2023-05-10T12:15:31;3.05;;;2.85;;
22995;SDS011;11664;49.774;8.650;2023-05-10T12:17:56;3.78;;;3.58;;
22995;SDS011;11664;49.774;8.650;2023-05-10T12:20:22;3.08;;;2.88;;
22995;SDS011;11664;49.774;8.650;2023-05-10T12:22:55;3.40;;;3.20;;
22995;SDS011;11664;49.774;8.650;2023-05-10T12:25:22;11.07;;;3.72;;
22995;SDS011;11664;49.774;8.650;2023-05-10T12:27:52;3.30;;;3.10;;
22995;SDS011;11664;49.774;8.650;2023-05-10T12:30:20;3.50;;;3.03;;
22995;SDS011;11664;49.774;8.650;2023-05-10T12:32:47;3.22;;;2.92;;
22995;SDS011;11664;49.774;8.650;2023-05-10T12:35:12;3.25;;;3.00;;
22995;SDS011;11664;49.774;8.650;2023-05-10T12:37:38;3.85;;;3.47;;
22995;SDS011;11664;49.774;8.650;2023-05-10T12:40:07;3.25;;;3.05;;
22995;SDS011;11664;49.774;8.650;2023-05-10T12:42:35;3.45;;;3.25;;
22995;SDS011;11664;49.774;8.650;2023-05-10T12:45:02;4.30;;;3.95;;
22995;SDS011;11664;49.774;8.650;2023-05-10T12:47:28;3.88;;;3.67;;
22995;SDS011;11664;49.774;8.650;2023-05-10T12:49:54;3.78;;;3.47;;
22995;SDS011;11664;49.774;8.650;2023-05-10T12:52:20;3.78;;;3.58;;
22995;SDS011;11664;49.774;8.650;2023-05-10T12:54:45;4.10;;;3.90;;
22995;SDS011;11664;49.774;8.650;2023-05-10T12:57:12;5.18;;;4.97;;
22995;SDS011;11664;49.774;8.650;2023-05-10T12:59:38;5.20;;;4.90;;
22995;SDS011;11664;49.774;8.650;2023-05-10T13:02:03;4.95;;;4.65;;
22995;SDS011;11664;49.774;8.650;2023-05-10T13:04:29;5.88;;;5.53;;
22995;SDS011;11664;49.774;8.650;2023-05-10T13:06:54;4.97;;;4.57;;
22995;SDS011;11664;49.774;8.650;2023-05-10T13:09:26;3.85;;;3.45;;
22995;SDS011;11664;49.774;8.650;2023-05-10T13:11:54;4.53;;;4.22;;
22995;SDS011;11664;49.774;8.650;2023-05-10T13:14:20;4.57;;;4.30;;
22995;SDS011;11664;49.774;8.650;2023-05-10T13:16:46;5.68;;;5.18;;
22995;SDS011;11664;49.774;8.650;2023-05-10T13:19:12;5.43;;;5.10;;
22995;SDS011;11664;49.774;8.650;2023-05-10T13:21:41;4.55;;;4.25;;
22995;SDS011;11664;49.774;8.650;2023-05-10T13:24:07;5.45;;;5.05;;
22995;SDS011;11664;49.774;8.650;2023-05-10T13:26:33;3.38;;;3.08;;
22995;SDS011;11664;49.774;8.650;2023-05-10T13:28:58;3.22;;;3.03;;
22995;SDS011;11664;49.774;8.650;2023-05-10T13:31:24;2.90;;;2.80;;
22995;SDS011;11664;49.774;8.650;2023-05-10T13:33:50;4.80;;;2.70;;
22995;SDS011;11664;49.774;8.650;2023-05-10T13:36:15;3.22;;;3.08;;
22995;SDS011;11664;49.774;8.650;2023-05-10T13:38:41;4.00;;;3.67;;
22995;SDS011;11664;49.774;8.650;2023-05-10T13:41:06;4.55;;;4.25;;
22995;SDS011;11664;49.774;8.650;2023-05-10T13:43:32;3.15;;;2.95;;
22995;SDS011;11664;49.774;8.650;2023-05-10T13:45:57;3.67;;;3.47;;
22995;SDS011;11664;49.774;8.650;2023-05-10T13:48:23;4.03;;;3.70;;
22995;SDS011;11664;49.774;8.650;2023-05-10T13:50:48;3.75;;;3.53;;
22995;SDS011;11664;49.774;8.650;2023-05-10T13:53:14;5.28;;;4.93;;
22995;SDS011;11664;49.774;8.650;2023-05-10T13:55:40;4.20;;;3.90;;
22995;SDS011;11664;49.774;8.650;2023-05-10T13:58:06;4.68;;;4.47;;
22995;SDS011;11664;49.774;8.650;2023-05-10T14:00:32;7.82;;;5.35;;
22995;SDS011;11664;49.774;8.650;2023-05-10T14:02:57;6.80;;;6.35;;
22995;SDS011;11664;49.774;8.650;2023-05-10T14:05:23;6.70;;;6.35;;
22995;SDS011;11664;49.774;8.650;2023-05-10T14:07:49;5.13;;;4.80;;
22995;SDS011;11664;49.774;8.650;2023-05-10T14:10:15;6.60;;;6.20;;
22995;SDS011;11664;49.774;8.650;2023-05-10T14:12:40;7.00;;;6.60;;
22995;SDS011;11664;49.774;8.650;2023-05-10T14:15:06;7.13;;;6.78;;
22995;SDS011;11664;49.774;8.650;2023-05-10T14:17:32;5.93;;;5.63;;
22995;SDS011;11664;49.774;8.650;2023-05-10T14:19:57;8.20;;;7.50;;
22995;SDS011;11664;49.774;8.650;2023-05-10T14:22:23;6.45;;;5.95;;
22995;SDS011;11664;49.774;8.650;2023-05-10T14:24:49;7.15;;;6.75;;
22995;SDS011;11664;49.774;8.650;2023-05-10T14:27:15;4.85;;;4.63;;
22995;SDS011;11664;49.774;8.650;2023-05-10T14:29:40;5.90;;;5.63;;
22995;SDS011;11664;49.774;8.650;2023-05-10T14:32:06;5.38;;;5.18;;
22995;SDS011;11664;49.774;8.650;2023-05-10T14:34:32;5.68;;;5.28;;
22995;SDS011;11664;49.774;8.650;2023-05-10T14:36:58;6.82;;;6.47;;
22995;SDS011;11664;49.774;8.650;2023-05-10T14:39:23;4.30;;;4.10;;
22995;SDS011;11664;49.774;8.650;2023-05-10T14:41:49;2.83;;;2.72;;
22995;SDS011;11664;49.774;8.650;2023-05-10T14:44:16;3.58;;;3.28;;
22995;SDS011;11664;49.774;8.650;2023-05-10T14:46:41;3.50;;;2.92;;
22995;SDS011;11664;49.774;8.650;2023-05-10T14:49:07;3.55;;;3.28;;
22995;SDS011;11664;49.774;8.650;2023-05-10T14:51:32;3.38;;;3.25;;
22995;SDS011;11664;49.774;8.650;2023-05-10T14:53:58;4.75;;;4.45;;
22995;SDS011;11664;49.774;8.650;2023-05-10T14:56:24;3.80;;;3.60;;
22995;SDS011;11664;49.774;8.650;2023-05-10T14:58:50;3.10;;;2.85;;
22995;SDS011;11664;49.774;8.650;2023-05-10T15:01:16;3.58;;;3.28;;
22995;SDS011;11664;49.774;8.650;2023-05-10T15:03:41;2.70;;;2.60;;
22995;SDS011;11664;49.774;8.650;2023-05-10T15:06:07;3.25;;;3.05;;
22995;SDS011;11664;49.774;8.650;2023-05-10T15:08:33;3.28;;;3.17;;
22995;SDS011;11664;49.774;8.650;2023-05-10T15:10:59;3.75;;;3.20;;